createdAt,value
2017-08-27T00:00:51.634Z,61.4
2017-08-27T00:01:52.456Z,61.0
2017-08-27T00:02:53.195Z,61.2
2017-08-27T00:03:53.932Z,61.6
2017-08-27T00:04:54.667Z,63.0
2017-08-27T00:05:55.346Z,61.4
2017-08-27T00:06:56.091Z,60.6
2017-08-27T00:07:56.831Z,57.4
2017-08-27T00:08:57.574Z,60.1
2017-08-27T00:09:58.315Z,96.8
2017-08-27T00:10:59.306Z,83.9
2017-08-27T00:12:00.047Z,71.9
2017-08-27T00:13:00.791Z,67.0
2017-08-27T00:14:01.538Z,66.7
2017-08-27T00:15:02.216Z,64.6
2017-08-27T00:16:03.350Z,67.5
2017-08-27T00:17:04.086Z,68.8
2017-08-27T00:18:04.817Z,68.2
2017-08-27T00:19:05.617Z,66.9
2017-08-27T00:20:06.424Z,67.7
2017-08-27T00:21:07.165Z,68.4
2017-08-27T00:22:07.901Z,62.7
2017-08-27T00:23:08.637Z,63.9
2017-08-27T00:24:09.378Z,64.0
2017-08-27T00:25:10.179Z,64.0
2017-08-27T00:26:11.304Z,62.6
2017-08-27T00:27:12.045Z,60.1
2017-08-27T00:28:12.790Z,59.7
2017-08-27T00:29:13.610Z,60.5
2017-08-27T00:30:14.334Z,56.2
2017-08-27T00:31:15.272Z,59.1
2017-08-27T00:32:16.004Z,57.4
2017-08-27T00:33:16.752Z,56.7
2017-08-27T00:34:17.481Z,56.5
2017-08-27T00:35:18.283Z,59.9
2017-08-27T00:36:19.331Z,58.0
2017-08-27T00:37:20.103Z,58.1
2017-08-27T00:38:20.838Z,58.4
2017-08-27T00:39:21.564Z,59.4
2017-08-27T00:40:22.294Z,59.1
2017-08-27T00:41:23.433Z,57.6
2017-08-27T00:42:24.246Z,56.6
2017-08-27T00:43:25.046Z,57.1
2017-08-27T00:44:25.799Z,58.2
2017-08-27T00:45:26.579Z,58.5
2017-08-27T00:46:27.754Z,59.3
2017-08-27T00:47:28.486Z,61.5
2017-08-27T00:48:29.223Z,61.3
2017-08-27T00:49:29.955Z,59.8
2017-08-27T00:50:30.765Z,58.4
2017-08-27T00:51:31.772Z,58.4
2017-08-27T00:52:32.596Z,59.0
2017-08-27T00:53:33.385Z,64.1
2017-08-27T00:54:34.125Z,64.3
2017-08-27T00:55:34.870Z,65.5
2017-08-27T00:56:36.025Z,64.5
2017-08-27T00:57:36.756Z,65.7
2017-08-27T00:58:37.496Z,69.7
2017-08-27T00:59:38.292Z,68.8
2017-08-27T01:00:39.057Z,70.3
2017-08-27T01:01:40.398Z,69.9
2017-08-27T01:02:41.176Z,70.8
2017-08-27T01:03:41.915Z,72.5
2017-08-27T01:04:42.667Z,73.9
2017-08-27T01:05:43.479Z,71.0
2017-08-27T01:06:44.580Z,72.3
2017-08-27T01:07:45.346Z,77.9
2017-08-27T01:08:46.127Z,77.3
2017-08-27T01:09:46.825Z,76.5
2017-08-27T01:10:47.571Z,75.6
2017-08-27T01:11:48.605Z,81.0
2017-08-27T01:12:49.336Z,82.7
2017-08-27T01:13:50.077Z,83.9
2017-08-27T01:14:50.879Z,83.4
2017-08-27T01:15:51.685Z,89.4
2017-08-27T01:16:52.725Z,84.3
2017-08-27T01:17:53.455Z,83.4
2017-08-27T01:18:54.186Z,89.5
2017-08-27T01:19:54.915Z,87.2
2017-08-27T01:20:55.655Z,88.3
2017-08-27T01:21:56.590Z,86.2
2017-08-27T01:22:57.319Z,84.0
2017-08-27T01:23:58.052Z,81.5
2017-08-27T01:24:58.783Z,81.1
2017-08-27T01:25:59.607Z,87.9
2017-08-27T01:27:00.743Z,79.2
2017-08-27T01:28:01.545Z,75.1
2017-08-27T01:29:02.286Z,75.1
2017-08-27T01:30:03.095Z,79.2
2017-08-27T01:31:03.845Z,80.0
2017-08-27T01:32:04.787Z,75.3
2017-08-27T01:33:05.661Z,75.4
2017-08-27T01:34:06.761Z,77.7
2017-08-27T01:35:07.439Z,76.9
2017-08-27T01:36:08.275Z,76.3
2017-08-27T01:37:09.207Z,74.8
2017-08-27T01:38:09.971Z,76.2
2017-08-27T01:39:10.708Z,76.9
2017-08-27T01:40:11.464Z,78.1
2017-08-27T01:41:12.202Z,82.8
2017-08-27T01:42:13.255Z,78.6
2017-08-27T01:43:13.987Z,82.2
2017-08-27T01:44:14.775Z,87.1
2017-08-27T01:45:15.514Z,84.0
2017-08-27T01:46:16.253Z,82.1
2017-08-27T01:47:17.234Z,85.7
2017-08-27T01:48:17.974Z,83.6
2017-08-27T01:49:18.710Z,82.8
2017-08-27T01:50:19.486Z,85.6
2017-08-27T01:51:20.228Z,82.7
2017-08-27T01:52:21.449Z,83.9
2017-08-27T01:53:22.214Z,85.0
2017-08-27T01:54:22.951Z,83.4
2017-08-27T01:55:23.755Z,81.5
2017-08-27T01:56:24.495Z,81.6
2017-08-27T01:57:25.497Z,89.6
2017-08-27T01:58:26.303Z,87.2
2017-08-27T01:59:27.087Z,86.3
2017-08-27T02:00:27.839Z,87.3
2017-08-27T02:01:28.625Z,87.9
2017-08-27T02:02:29.675Z,91.7
2017-08-27T02:03:30.399Z,84.2
2017-08-27T02:04:31.136Z,83.8
2017-08-27T02:05:31.875Z,86.1
2017-08-27T02:06:32.622Z,85.3
2017-08-27T02:07:33.562Z,87.6
2017-08-27T02:08:34.355Z,89.9
2017-08-27T02:09:35.095Z,92.1
2017-08-27T02:10:35.825Z,91.6
2017-08-27T02:11:36.556Z,93.6
2017-08-27T02:12:37.646Z,93.6
2017-08-27T02:13:38.380Z,97.3
2017-08-27T02:14:39.115Z,99.5
2017-08-27T02:15:39.854Z,96.5
2017-08-27T02:16:40.579Z,96.1
2017-08-27T02:17:41.614Z,93.9
2017-08-27T02:18:42.345Z,97.5
2017-08-27T02:19:43.087Z,99.6
2017-08-27T02:20:43.915Z,102.1
2017-08-27T02:21:44.651Z,100.9
2017-08-27T02:22:45.701Z,100.8
2017-08-27T02:23:46.486Z,100.1
2017-08-27T02:24:47.285Z,104.8
2017-08-27T02:25:48.022Z,108.1
2017-08-27T02:26:48.765Z,106.8
2017-08-27T02:27:49.866Z,108.3
2017-08-27T02:28:50.682Z,111.8
2017-08-27T02:29:51.423Z,112.2
2017-08-27T02:30:52.186Z,115.9
2017-08-27T02:31:52.986Z,111.7
2017-08-27T02:32:54.009Z,116.5
2017-08-27T02:33:54.733Z,117.2
2017-08-27T02:34:55.473Z,115.3
2017-08-27T02:35:56.284Z,126.0
2017-08-27T02:36:57.030Z,114.8
2017-08-27T02:37:58.083Z,118.4
2017-08-27T02:38:58.831Z,118.9
2017-08-27T02:39:59.637Z,118.3
2017-08-27T02:41:00.440Z,120.9
2017-08-27T02:42:01.233Z,120.8
2017-08-27T02:43:01.995Z,117.3
2017-08-27T02:44:03.145Z,119.8
2017-08-27T02:45:03.876Z,120.6
2017-08-27T02:46:04.617Z,122.9
2017-08-27T02:47:05.350Z,121.2
2017-08-27T02:48:06.086Z,120.5
2017-08-27T02:49:07.182Z,124.8
2017-08-27T02:50:07.995Z,126.5
2017-08-27T02:51:08.750Z,120.1
2017-08-27T02:52:09.515Z,118.7
2017-08-27T02:53:10.255Z,121.0
2017-08-27T02:54:10.994Z,121.5
2017-08-27T02:55:11.735Z,128.3
2017-08-27T02:56:12.788Z,126.4
2017-08-27T02:57:13.576Z,136.8
2017-08-27T02:58:14.329Z,125.5
2017-08-27T02:59:15.116Z,129.9
2017-08-27T03:00:15.926Z,130.3
2017-08-27T03:01:17.125Z,129.0
2017-08-27T03:02:17.864Z,132.4
2017-08-27T03:03:18.594Z,133.8
2017-08-27T03:04:19.345Z,137.7
2017-08-27T03:05:20.156Z,130.4
2017-08-27T03:06:21.208Z,130.2
2017-08-27T03:07:22.017Z,128.4
2017-08-27T03:08:22.818Z,128.6
2017-08-27T03:09:23.556Z,131.2
2017-08-27T03:10:24.373Z,129.9
2017-08-27T03:11:25.534Z,125.5
2017-08-27T03:12:26.262Z,131.9
2017-08-27T03:13:27.005Z,130.9
2017-08-27T03:14:27.746Z,130.7
2017-08-27T03:15:28.564Z,138.1
2017-08-27T03:16:29.594Z,134.1
2017-08-27T03:17:30.333Z,134.5
2017-08-27T03:18:31.082Z,133.3
2017-08-27T03:19:31.814Z,138.4
2017-08-27T03:20:32.556Z,142.3
2017-08-27T03:21:33.615Z,134.4
2017-08-27T03:22:34.345Z,137.9
2017-08-27T03:23:35.093Z,137.0
2017-08-27T03:24:35.861Z,134.0
2017-08-27T03:25:36.688Z,134.8
2017-08-27T03:26:37.744Z,133.8
2017-08-27T03:27:38.477Z,131.6
2017-08-27T03:28:39.204Z,133.6
2017-08-27T03:29:39.957Z,129.6
2017-08-27T03:30:40.741Z,123.7
2017-08-27T03:31:41.676Z,124.1
2017-08-27T03:32:42.414Z,122.8
2017-08-27T03:33:43.152Z,120.8
2017-08-27T03:34:43.895Z,115.6
2017-08-27T03:35:44.634Z,117.8
2017-08-27T03:36:45.674Z,117.8
2017-08-27T03:37:46.416Z,113.9
2017-08-27T03:38:47.228Z,109.4
2017-08-27T03:39:48.044Z,108.4
2017-08-27T03:40:48.792Z,106.6
2017-08-27T03:41:49.934Z,106.1
2017-08-27T03:42:50.677Z,111.4
2017-08-27T03:43:51.499Z,112.2
2017-08-27T03:44:52.311Z,109.9
2017-08-27T03:45:53.136Z,110.8
2017-08-27T03:46:54.064Z,113.2
2017-08-27T03:47:54.794Z,110.8
2017-08-27T03:48:55.546Z,112.5
2017-08-27T03:49:56.296Z,113.7
2017-08-27T03:50:57.086Z,111.3
2017-08-27T03:51:58.125Z,110.3
2017-08-27T03:52:58.862Z,108.8
2017-08-27T03:53:59.682Z,106.0
2017-08-27T03:55:00.497Z,106.5
2017-08-27T03:56:01.243Z,96.0
2017-08-27T03:57:02.339Z,99.2
2017-08-27T03:58:03.122Z,100.4
2017-08-27T03:59:03.927Z,101.8
2017-08-27T04:00:04.727Z,104.6
2017-08-27T04:01:05.542Z,107.5
2017-08-27T04:02:06.685Z,111.8
2017-08-27T04:03:07.417Z,107.2
2017-08-27T04:04:08.150Z,112.8
2017-08-27T04:05:08.885Z,110.4
2017-08-27T04:06:09.627Z,110.5
2017-08-27T04:07:10.695Z,114.8
2017-08-27T04:08:11.432Z,112.4
2017-08-27T04:09:12.175Z,109.2
2017-08-27T04:10:12.919Z,111.6
2017-08-27T04:11:13.698Z,110.5
2017-08-27T04:12:14.730Z,111.1
2017-08-27T04:13:15.526Z,109.7
2017-08-27T04:14:16.266Z,110.1
2017-08-27T04:15:17.086Z,111.4
2017-08-27T04:16:17.828Z,112.9
2017-08-27T04:17:18.637Z,115.2
2017-08-27T04:18:19.368Z,115.6
2017-08-27T04:19:20.316Z,113.8
2017-08-27T04:20:21.132Z,120.9
2017-08-27T04:21:21.917Z,117.3
2017-08-27T04:22:22.657Z,117.4
2017-08-27T04:23:23.476Z,114.2
2017-08-27T04:24:24.685Z,109.9
2017-08-27T04:25:25.499Z,110.6
2017-08-27T04:26:26.281Z,112.9
2017-08-27T04:27:27.013Z,111.6
2017-08-27T04:28:27.840Z,114.7
2017-08-27T04:29:28.935Z,113.3
2017-08-27T04:30:29.666Z,111.4
2017-08-27T04:31:30.414Z,113.8
2017-08-27T04:32:31.198Z,119.0
2017-08-27T04:33:32.036Z,118.4
2017-08-27T04:34:33.876Z,115.7
2017-08-27T04:35:34.606Z,117.2
2017-08-27T04:36:35.344Z,115.9
2017-08-27T04:37:36.090Z,117.9
2017-08-27T04:38:36.899Z,113.5
2017-08-27T04:39:37.888Z,113.1
2017-08-27T04:40:38.675Z,115.2
2017-08-27T04:41:39.407Z,113.9
2017-08-27T04:42:40.146Z,111.0
2017-08-27T04:43:40.885Z,113.5
2017-08-27T04:44:42.035Z,111.2
2017-08-27T04:45:42.777Z,109.9
2017-08-27T04:46:43.607Z,109.8
2017-08-27T04:47:44.346Z,109.0
2017-08-27T04:48:45.074Z,114.6
2017-08-27T04:49:46.115Z,107.9
2017-08-27T04:50:46.852Z,109.2
2017-08-27T04:51:47.662Z,108.9
2017-08-27T04:52:48.395Z,113.0
2017-08-27T04:53:49.135Z,108.1
2017-08-27T04:54:50.185Z,117.0
2017-08-27T04:55:50.925Z,110.3
2017-08-27T04:56:51.665Z,113.6
2017-08-27T04:57:52.406Z,117.3
2017-08-27T04:58:53.163Z,111.1
2017-08-27T04:59:54.266Z,109.1
2017-08-27T05:00:55.075Z,116.4
2017-08-27T05:01:55.821Z,111.7
2017-08-27T05:02:56.555Z,117.7
2017-08-27T05:03:57.295Z,115.5
2017-08-27T05:04:58.437Z,115.8
2017-08-27T05:05:59.183Z,114.4
2017-08-27T05:06:59.992Z,115.7
2017-08-27T05:08:00.807Z,122.9
2017-08-27T05:09:01.662Z,118.8
2017-08-27T05:10:02.446Z,117.8
2017-08-27T05:11:03.459Z,114.5
2017-08-27T05:12:04.245Z,115.8
2017-08-27T05:13:04.997Z,113.1
2017-08-27T05:14:05.796Z,109.3
2017-08-27T05:15:06.550Z,115.3
2017-08-27T05:16:07.338Z,110.4
2017-08-27T05:17:08.413Z,108.5
2017-08-27T05:18:09.210Z,103.5
2017-08-27T05:19:09.997Z,106.3
2017-08-27T05:20:10.729Z,108.0
2017-08-27T05:21:11.471Z,104.0
2017-08-27T05:22:12.252Z,105.4
2017-08-27T05:23:13.466Z,108.7
2017-08-27T05:24:14.255Z,105.0
2017-08-27T05:25:14.997Z,106.5
2017-08-27T05:26:15.767Z,106.6
2017-08-27T05:27:16.498Z,100.6
2017-08-27T05:28:17.535Z,100.5
2017-08-27T05:29:18.276Z,103.1
2017-08-27T05:30:19.028Z,101.2
2017-08-27T05:31:19.840Z,99.1
2017-08-27T05:32:20.579Z,96.5
2017-08-27T05:33:21.391Z,96.8
2017-08-27T05:34:22.137Z,97.6
2017-08-27T05:35:23.076Z,91.4
2017-08-27T05:36:23.818Z,94.6
2017-08-27T05:37:24.562Z,95.8
2017-08-27T05:38:25.371Z,94.8
2017-08-27T05:39:26.117Z,95.3
2017-08-27T05:40:26.850Z,97.1
2017-08-27T05:41:28.021Z,101.6
2017-08-27T05:42:28.837Z,101.8
2017-08-27T05:43:29.587Z,95.8
2017-08-27T05:44:30.327Z,96.9
2017-08-27T05:45:31.147Z,96.0
2017-08-27T05:46:32.250Z,100.6
2017-08-27T05:47:33.006Z,98.3
2017-08-27T05:48:33.756Z,95.4
2017-08-27T05:49:34.487Z,95.3
2017-08-27T05:50:35.228Z,95.2
2017-08-27T05:51:36.167Z,90.6
2017-08-27T05:52:36.915Z,90.1
2017-08-27T05:53:37.706Z,82.5
2017-08-27T05:54:38.443Z,80.4
2017-08-27T05:55:39.287Z,78.5
2017-08-27T05:56:40.411Z,83.7
2017-08-27T05:57:41.216Z,74.2
2017-08-27T05:58:41.963Z,75.7
2017-08-27T05:59:42.771Z,71.6
2017-08-27T06:00:43.585Z,73.4
2017-08-27T06:01:44.732Z,69.2
2017-08-27T06:02:45.551Z,62.0
2017-08-27T06:03:47.701Z,65.0
2017-08-27T06:04:48.054Z,57.9
2017-08-27T06:05:48.790Z,56.8
2017-08-27T06:06:49.998Z,55.2
2017-08-27T06:07:50.738Z,53.3
2017-08-27T06:08:51.487Z,55.7
2017-08-27T06:09:52.309Z,67.0
2017-08-27T06:10:53.110Z,68.2
2017-08-27T06:11:54.206Z,70.4
2017-08-27T06:12:54.995Z,65.2
2017-08-27T06:13:55.817Z,65.2
2017-08-27T06:14:56.560Z,63.1
2017-08-27T06:15:57.386Z,60.1
2017-08-27T06:16:58.427Z,60.5
2017-08-27T06:17:59.170Z,58.7
2017-08-27T06:18:59.916Z,60.5
2017-08-27T06:20:00.657Z,58.4
2017-08-27T06:21:01.406Z,59.3
2017-08-27T06:22:02.339Z,58.9
2017-08-27T06:23:03.076Z,56.0
2017-08-27T06:24:03.818Z,54.6
2017-08-27T06:25:04.647Z,54.5
2017-08-27T06:26:05.386Z,52.1
2017-08-27T06:27:06.426Z,49.8
2017-08-27T06:28:07.166Z,49.8
2017-08-27T06:29:07.950Z,50.9
2017-08-27T06:30:08.704Z,49.4
2017-08-27T06:31:09.507Z,47.0
2017-08-27T06:32:10.262Z,47.8
2017-08-27T06:33:11.068Z,47.3
2017-08-27T06:34:11.901Z,47.1
2017-08-27T06:35:13.005Z,46.8
2017-08-27T06:36:13.808Z,46.0
2017-08-27T06:37:14.545Z,44.5
2017-08-27T06:38:15.297Z,45.3
2017-08-27T06:39:16.108Z,45.6
2017-08-27T06:40:16.932Z,47.3
2017-08-27T06:41:18.115Z,47.2
2017-08-27T06:42:18.924Z,45.1
2017-08-27T06:43:19.666Z,45.7
2017-08-27T06:44:20.405Z,44.3
2017-08-27T06:45:21.149Z,44.5
2017-08-27T06:46:22.359Z,42.9
2017-08-27T06:47:23.104Z,43.5
2017-08-27T06:48:23.915Z,44.8
2017-08-27T06:49:24.713Z,43.1
2017-08-27T06:50:25.470Z,44.6
2017-08-27T06:51:26.263Z,44.3
2017-08-27T06:52:27.012Z,42.5
2017-08-27T06:53:28.166Z,40.9
2017-08-27T06:54:28.904Z,39.8
2017-08-27T06:55:29.670Z,38.6
2017-08-27T06:56:30.457Z,37.2
2017-08-27T06:57:31.280Z,38.0
2017-08-27T06:58:32.341Z,36.2
2017-08-27T06:59:33.135Z,37.2
2017-08-27T07:00:33.879Z,36.0
2017-08-27T07:01:34.625Z,33.4
2017-08-27T07:02:35.366Z,34.6
2017-08-27T07:03:36.107Z,33.0
2017-08-27T07:04:36.860Z,31.4
2017-08-27T07:05:38.066Z,31.7
2017-08-27T07:06:38.806Z,30.5
2017-08-27T07:07:39.541Z,30.6
2017-08-27T07:08:40.348Z,29.8
2017-08-27T07:09:41.163Z,28.7
2017-08-27T07:10:42.187Z,28.0
2017-08-27T07:11:42.946Z,25.7
2017-08-27T07:12:43.770Z,25.4
2017-08-27T07:13:44.502Z,24.5
2017-08-27T07:14:45.308Z,24.5
2017-08-27T07:15:46.096Z,23.9
2017-08-27T07:16:46.845Z,23.8
2017-08-27T07:17:47.988Z,22.3
2017-08-27T07:18:48.741Z,20.9
2017-08-27T07:19:49.557Z,20.0
2017-08-27T07:20:50.359Z,20.3
2017-08-27T07:21:51.102Z,20.5
2017-08-27T07:22:52.100Z,20.5
2017-08-27T07:23:52.835Z,20.8
2017-08-27T07:24:53.590Z,20.6
2017-08-27T07:25:54.376Z,19.6
2017-08-27T07:26:55.115Z,18.6
2017-08-27T07:27:56.261Z,19.4
2017-08-27T07:28:57.068Z,20.2
2017-08-27T07:29:57.875Z,20.6
2017-08-27T07:30:58.610Z,19.5
2017-08-27T07:31:59.415Z,21.6
2017-08-27T07:33:00.508Z,20.7
2017-08-27T07:34:01.326Z,20.0
2017-08-27T07:35:02.077Z,21.2
2017-08-27T07:36:03.120Z,19.4
2017-08-27T07:37:03.849Z,19.0
2017-08-27T07:38:04.786Z,17.2
2017-08-27T07:39:05.540Z,17.1
2017-08-27T07:40:06.325Z,19.5
2017-08-27T07:41:07.126Z,19.4
2017-08-27T07:42:07.871Z,19.4
2017-08-27T07:43:08.638Z,17.9
2017-08-27T07:44:09.766Z,20.0
2017-08-27T07:45:10.577Z,17.1
2017-08-27T07:46:11.314Z,17.1
2017-08-27T07:47:12.060Z,16.2
2017-08-27T07:48:12.842Z,16.3
2017-08-27T07:49:13.938Z,14.7
2017-08-27T07:50:14.680Z,16.0
2017-08-27T07:51:15.414Z,15.5
2017-08-27T07:52:16.170Z,15.4
2017-08-27T07:53:16.905Z,15.2
2017-08-27T07:54:17.946Z,15.0
2017-08-27T07:55:18.691Z,16.3
2017-08-27T07:56:19.453Z,16.6
2017-08-27T07:57:20.262Z,17.3
2017-08-27T07:58:21.077Z,16.0
2017-08-27T07:59:21.877Z,16.1
2017-08-27T08:00:22.628Z,13.7
2017-08-27T08:01:23.430Z,13.4
2017-08-27T08:02:24.470Z,13.4
2017-08-27T08:03:25.228Z,12.9
2017-08-27T08:04:26.041Z,13.1
2017-08-27T08:05:26.780Z,13.0
2017-08-27T08:06:27.593Z,11.9
2017-08-27T08:07:28.680Z,11.6
2017-08-27T08:08:29.420Z,10.6
2017-08-27T08:09:30.170Z,10.0
2017-08-27T08:10:30.914Z,10.1
2017-08-27T08:11:31.658Z,9.1
2017-08-27T08:12:32.822Z,8.4
2017-08-27T08:13:33.565Z,9.4
2017-08-27T08:14:34.247Z,8.9
2017-08-27T08:15:34.986Z,8.1
2017-08-27T08:16:35.763Z,7.6
2017-08-27T08:17:36.865Z,7.5
2017-08-27T08:18:37.667Z,7.3
2017-08-27T08:19:38.411Z,7.6
2017-08-27T08:20:39.186Z,12.1
2017-08-27T08:21:39.946Z,11.0
2017-08-27T08:22:41.121Z,10.2
2017-08-27T08:23:41.867Z,9.0
2017-08-27T08:24:42.622Z,8.3
2017-08-27T08:25:43.367Z,8.1
2017-08-27T08:26:44.106Z,8.2
2017-08-27T08:27:45.141Z,10.9
2017-08-27T08:28:45.881Z,9.5
2017-08-27T08:29:46.615Z,9.0
2017-08-27T08:30:47.367Z,8.5
2017-08-27T08:31:48.106Z,8.8
2017-08-27T08:32:48.846Z,7.8
2017-08-27T08:33:49.923Z,7.8
2017-08-27T08:34:50.701Z,7.2
2017-08-27T08:35:51.507Z,7.9
2017-08-27T08:36:52.324Z,7.2
2017-08-27T08:37:53.067Z,6.6
2017-08-27T08:38:54.120Z,6.6
2017-08-27T08:39:54.906Z,5.9
2017-08-27T08:40:55.645Z,6.3
2017-08-27T08:41:56.407Z,6.0
2017-08-27T08:42:57.209Z,7.0
2017-08-27T08:43:58.338Z,6.1
2017-08-27T08:44:59.081Z,6.5
2017-08-27T08:45:59.829Z,5.9
2017-08-27T08:47:00.616Z,7.2
2017-08-27T08:48:01.343Z,6.2
2017-08-27T08:49:02.467Z,5.6
2017-08-27T08:50:03.205Z,5.6
2017-08-27T08:51:03.956Z,6.0
2017-08-27T08:52:04.699Z,5.5
2017-08-27T08:53:05.435Z,5.3
2017-08-27T08:54:06.470Z,4.9
2017-08-27T08:55:07.295Z,5.0
2017-08-27T08:56:08.036Z,5.0
2017-08-27T08:57:08.866Z,5.4
2017-08-27T08:58:09.606Z,5.6
2017-08-27T08:59:10.366Z,5.2
2017-08-27T09:00:11.109Z,5.2
2017-08-27T09:01:11.851Z,5.1
2017-08-27T09:02:12.914Z,5.9
2017-08-27T09:03:13.709Z,5.2
2017-08-27T09:04:14.457Z,5.1
2017-08-27T09:05:15.196Z,4.9
2017-08-27T09:06:15.996Z,4.9
2017-08-27T09:07:16.746Z,5.4
2017-08-27T09:08:17.967Z,5.4
2017-08-27T09:09:18.795Z,4.8
2017-08-27T09:10:19.615Z,4.6
2017-08-27T09:11:20.356Z,4.6
2017-08-27T09:12:21.109Z,3.9
2017-08-27T09:13:22.217Z,4.3
2017-08-27T09:14:22.957Z,4.3
2017-08-27T09:15:23.698Z,4.3
2017-08-27T09:16:24.472Z,4.6
2017-08-27T09:17:25.310Z,4.2
2017-08-27T09:18:26.534Z,5.0
2017-08-27T09:19:27.339Z,4.6
2017-08-27T09:20:28.142Z,4.6
2017-08-27T09:21:28.891Z,4.1
2017-08-27T09:22:29.646Z,4.9
2017-08-27T09:23:30.398Z,4.8
2017-08-27T09:24:31.178Z,4.6
2017-08-27T09:25:32.174Z,4.9
2017-08-27T09:26:32.929Z,4.3
2017-08-27T09:27:33.728Z,3.6
2017-08-27T09:28:35.083Z,3.8
2017-08-27T09:29:35.766Z,4.1
2017-08-27T09:30:36.806Z,4.6
2017-08-27T09:31:37.554Z,4.5
2017-08-27T09:32:38.296Z,4.6
2017-08-27T09:33:39.114Z,4.5
2017-08-27T09:34:39.915Z,4.7
2017-08-27T09:35:40.724Z,4.0
2017-08-27T09:36:41.495Z,5.0
2017-08-27T09:37:42.647Z,4.0
2017-08-27T09:38:43.470Z,4.5
2017-08-27T09:39:44.278Z,4.5
2017-08-27T09:40:45.042Z,4.2
2017-08-27T09:41:45.780Z,4.3
2017-08-27T09:42:46.984Z,4.7
2017-08-27T09:43:47.724Z,4.7
2017-08-27T09:44:48.483Z,5.4
2017-08-27T09:45:49.264Z,4.8
2017-08-27T09:46:50.005Z,4.2
2017-08-27T09:47:50.745Z,4.3
2017-08-27T09:48:51.494Z,3.9
2017-08-27T09:49:52.243Z,4.0
2017-08-27T09:50:53.016Z,4.9
2017-08-27T09:51:53.765Z,4.1
2017-08-27T09:52:54.814Z,4.0
2017-08-27T09:53:55.560Z,3.9
2017-08-27T09:54:56.315Z,3.9
2017-08-27T09:55:57.128Z,3.7
2017-08-27T09:56:57.866Z,4.3
2017-08-27T09:57:58.915Z,4.3
2017-08-27T09:58:59.724Z,3.7
2017-08-27T10:00:00.484Z,3.7
2017-08-27T10:01:01.249Z,3.2
2017-08-27T10:02:01.994Z,3.3
2017-08-27T10:03:02.995Z,3.0
2017-08-27T10:04:03.745Z,3.2
2017-08-27T10:05:04.555Z,3.3
2017-08-27T10:06:05.303Z,3.4
2017-08-27T10:07:06.044Z,3.0
2017-08-27T10:08:06.985Z,3.0
2017-08-27T10:09:07.734Z,3.2
2017-08-27T10:10:08.475Z,2.8
2017-08-27T10:11:09.220Z,2.6
2017-08-27T10:12:10.037Z,3.0
2017-08-27T10:13:11.233Z,3.3
2017-08-27T10:14:11.995Z,3.6
2017-08-27T10:15:12.804Z,3.1
2017-08-27T10:16:13.557Z,2.9
2017-08-27T10:17:14.306Z,3.0
2017-08-27T10:18:15.424Z,2.9
2017-08-27T10:19:16.163Z,2.9
2017-08-27T10:20:16.911Z,2.3
2017-08-27T10:21:17.674Z,2.9
2017-08-27T10:22:18.424Z,2.7
2017-08-27T10:23:19.496Z,2.5
2017-08-27T10:24:20.300Z,2.6
2017-08-27T10:25:21.044Z,2.4
2017-08-27T10:26:21.793Z,2.5
2017-08-27T10:27:22.549Z,2.2
2017-08-27T10:28:23.646Z,2.6
2017-08-27T10:29:24.459Z,2.8
2017-08-27T10:30:25.275Z,2.7
2017-08-27T10:31:26.079Z,2.4
2017-08-27T10:32:26.886Z,2.4
2017-08-27T10:33:27.937Z,2.5
2017-08-27T10:34:28.722Z,2.5
2017-08-27T10:35:29.504Z,2.3
2017-08-27T10:36:30.308Z,2.3
2017-08-27T10:37:31.147Z,3.1
2017-08-27T10:38:31.895Z,2.6
2017-08-27T10:39:33.051Z,3.1
2017-08-27T10:40:33.872Z,3.5
2017-08-27T10:41:34.721Z,2.5
2017-08-27T10:42:35.532Z,2.3
2017-08-27T10:43:36.278Z,2.6
2017-08-27T10:44:37.505Z,2.8
2017-08-27T10:45:38.224Z,2.4
2017-08-27T10:46:38.957Z,2.2
2017-08-27T10:47:39.713Z,2.5
2017-08-27T10:48:40.457Z,2.2
2017-08-27T10:49:41.637Z,1.8
2017-08-27T10:50:42.379Z,1.7
2017-08-27T10:51:43.131Z,1.8
2017-08-27T10:52:43.866Z,2.2
2017-08-27T10:53:44.607Z,2.3
2017-08-27T10:54:45.339Z,2.1
2017-08-27T10:55:46.344Z,2.4
2017-08-27T10:56:47.112Z,2.4
2017-08-27T10:57:47.906Z,2.3
2017-08-27T10:58:48.658Z,2.4
2017-08-27T10:59:49.466Z,2.2
2017-08-27T11:00:50.496Z,2.2
2017-08-27T11:01:51.237Z,2.4
2017-08-27T11:02:52.007Z,2.4
2017-08-27T11:03:52.755Z,2.9
2017-08-27T11:04:53.496Z,2.5
2017-08-27T11:05:54.540Z,2.4
2017-08-27T11:06:55.286Z,2.6
2017-08-27T11:07:56.108Z,2.3
2017-08-27T11:08:56.938Z,2.0
2017-08-27T11:09:57.687Z,1.8
2017-08-27T11:10:58.689Z,2.6
2017-08-27T11:11:59.495Z,2.5
2017-08-27T11:13:00.246Z,2.4
2017-08-27T11:14:01.060Z,2.0
2017-08-27T11:15:01.866Z,1.9
2017-08-27T11:16:03.068Z,1.9
2017-08-27T11:17:03.806Z,1.6
2017-08-27T11:18:04.550Z,1.7
2017-08-27T11:19:05.356Z,2.1
2017-08-27T11:20:06.185Z,1.8
2017-08-27T11:21:07.293Z,1.8
2017-08-27T11:22:08.096Z,1.8
2017-08-27T11:23:09.129Z,1.8
2017-08-27T11:24:09.873Z,1.6
2017-08-27T11:25:10.642Z,1.9
2017-08-27T11:26:11.840Z,2.0
2017-08-27T11:27:12.646Z,1.8
2017-08-27T11:28:13.395Z,1.6
2017-08-27T11:29:14.173Z,1.6
2017-08-27T11:30:15.005Z,2.0
2017-08-27T11:31:15.758Z,2.0
2017-08-27T11:32:16.695Z,1.8
2017-08-27T11:33:17.521Z,1.4
2017-08-27T11:34:19.445Z,1.3
2017-08-27T11:35:21.786Z,1.6
2017-08-27T11:36:23.352Z,1.3
2017-08-27T11:37:25.882Z,1.4
2017-08-27T11:38:26.982Z,1.6
2017-08-27T11:39:28.093Z,1.4
2017-08-27T11:40:30.304Z,1.7
2017-08-27T11:41:31.762Z,1.4
2017-08-27T11:42:32.712Z,1.6
2017-08-27T11:43:34.241Z,1.6
2017-08-27T11:44:34.916Z,1.9
2017-08-27T11:45:36.106Z,1.5
2017-08-27T11:46:36.938Z,1.8
2017-08-27T11:47:37.739Z,1.7
2017-08-27T11:48:38.497Z,1.3
2017-08-27T11:49:39.346Z,1.5
2017-08-27T11:50:40.527Z,1.6
2017-08-27T11:51:41.273Z,1.4
2017-08-27T11:52:42.090Z,1.4
2017-08-27T11:53:42.854Z,1.1
2017-08-27T11:54:43.605Z,1.4
2017-08-27T11:55:44.712Z,1.1
2017-08-27T11:56:45.446Z,1.2
2017-08-27T11:57:46.276Z,1.2
2017-08-27T11:58:46.980Z,1.1
2017-08-27T11:59:47.795Z,1.4
2017-08-27T12:00:48.542Z,1.2
2017-08-27T12:01:49.595Z,1.3
2017-08-27T12:02:50.405Z,1.3
2017-08-27T12:03:51.161Z,1.9
2017-08-27T12:04:51.866Z,2.3
2017-08-27T12:05:52.619Z,1.7
2017-08-27T12:06:53.747Z,1.3
2017-08-27T12:07:54.557Z,1.5
2017-08-27T12:08:55.330Z,1.6
2017-08-27T12:09:56.115Z,9.5
2017-08-27T12:10:56.850Z,2.5
2017-08-27T12:11:57.955Z,3.6
2017-08-27T12:12:58.719Z,15.9
2017-08-27T12:13:59.438Z,31.9
2017-08-27T12:15:00.223Z,12.7
2017-08-27T12:16:01.016Z,8.7
2017-08-27T12:17:02.621Z,2.0
2017-08-27T12:18:03.316Z,3.0
2017-08-27T12:19:04.107Z,2.9
2017-08-27T12:20:04.937Z,1.7
2017-08-27T12:21:05.746Z,1.2
2017-08-27T12:22:07.380Z,1.3
2017-08-27T12:23:08.055Z,1.7
2017-08-27T12:24:08.805Z,1.5
2017-08-27T12:25:09.545Z,1.1
2017-08-27T12:26:10.296Z,1.4
2017-08-27T12:27:11.456Z,2.6
2017-08-27T12:28:12.208Z,2.5
2017-08-27T12:29:12.997Z,2.7
2017-08-27T12:30:13.971Z,1.5
2017-08-27T12:31:14.752Z,1.7
2017-08-27T12:32:15.796Z,0.9
2017-08-27T12:33:16.635Z,1.5
2017-08-27T12:34:17.464Z,1.6
2017-08-27T12:35:18.396Z,1.2
2017-08-27T12:36:19.215Z,1.1
2017-08-27T12:37:20.210Z,1.2
2017-08-27T12:38:21.034Z,1.0
2017-08-27T12:39:21.789Z,1.1
2017-08-27T12:40:22.588Z,1.0
2017-08-27T12:41:23.399Z,1.1
2017-08-27T12:42:24.436Z,1.0
2017-08-27T12:43:25.269Z,1.2
2017-08-27T12:44:26.009Z,1.1
2017-08-27T12:45:26.835Z,1.0
2017-08-27T12:46:27.631Z,1.0
2017-08-27T12:47:28.852Z,1.3
2017-08-27T12:48:29.584Z,1.3
2017-08-27T12:49:30.333Z,1.1
2017-08-27T12:50:31.078Z,1.0
2017-08-27T12:51:31.816Z,1.0
2017-08-27T12:52:32.820Z,1.2
2017-08-27T12:53:33.639Z,1.2
2017-08-27T12:54:34.452Z,1.4
2017-08-27T12:55:35.201Z,1.1
2017-08-27T12:56:36.047Z,1.1
2017-08-27T12:57:37.108Z,0.9
2017-08-27T12:58:37.806Z,1.2
2017-08-27T12:59:38.556Z,1.0
2017-08-27T13:00:39.361Z,1.2
2017-08-27T13:01:40.132Z,1.1
2017-08-27T13:02:40.935Z,1.0
2017-08-27T13:03:41.685Z,1.0
2017-08-27T13:04:42.455Z,1.1
2017-08-27T13:05:43.196Z,0.9
2017-08-27T13:06:44.008Z,1.3
2017-08-27T13:07:45.118Z,1.1
2017-08-27T13:08:45.845Z,1.2
2017-08-27T13:09:46.600Z,1.1
2017-08-27T13:10:47.408Z,1.1
2017-08-27T13:11:48.196Z,1.2
2017-08-27T13:12:49.009Z,1.1
2017-08-27T13:13:50.116Z,1.0
2017-08-27T13:14:50.876Z,1.2
2017-08-27T13:15:51.675Z,1.6
2017-08-27T13:16:52.429Z,1.2
2017-08-27T13:17:53.237Z,1.3
2017-08-27T13:18:54.458Z,1.0
2017-08-27T13:19:55.278Z,1.4
2017-08-27T13:20:56.028Z,1.4
2017-08-27T13:21:56.809Z,1.2
2017-08-27T13:22:57.591Z,1.2
2017-08-27T13:23:58.581Z,1.4
2017-08-27T13:24:59.409Z,1.0
2017-08-27T13:26:00.216Z,1.2
2017-08-27T13:27:00.962Z,1.0
2017-08-27T13:28:01.715Z,1.0
2017-08-27T13:29:02.657Z,1.0
2017-08-27T13:30:03.499Z,1.0
2017-08-27T13:31:04.324Z,1.2
2017-08-27T13:32:05.123Z,0.9
2017-08-27T13:33:05.865Z,0.9
2017-08-27T13:34:06.955Z,1.3